sensor_id;sensor_type;location;lat;lon;timestamp;pressure;altitude;pressure_sealevel;temperature;humidity
79198;BME280;68628;48.714;9.472;2023-07-09T00:02:01;98415.91;;;20.25;61.04
79198;BME280;68628;48.714;9.472;2023-07-09T00:04:27;98410.44;;;20.20;61.38
79198;BME280;68628;48.714;9.472;2023-07-09T00:07:02;98422.53;;;20.22;61.45
79198;BME280;68628;48.714;9.472;2023-07-09T00:09:29;98431.47;;;20.16;61.43
79198;BME280;68628;48.714;9.472;2023-07-09T00:11:55;98423.69;;;20.14;61.41
79198;BME280;68628;48.714;9.472;2023-07-09T00:14:21;98424.16;;;20.11;61.49
79198;BME280;68628;48.714;9.472;2023-07-09T00:16:47;98419.41;;;19.90;62.46
79198;BME280;68628;48.714;9.472;2023-07-09T00:19:19;98429.75;;;19.98;62.13
79198;BME280;68628;48.714;9.472;2023-07-09T00:21:50;98444.16;;;19.97;62.25
79198;BME280;68628;48.714;9.472;2023-07-09T00:24:18;98435.22;;;19.91;62.41
79198;BME280;68628;48.714;9.472;2023-07-09T00:26:45;98437.03;;;19.91;62.18
79198;BME280;68628;48.714;9.472;2023-07-09T00:29:13;98432.97;;;19.88;62.28
79198;BME280;68628;48.714;9.472;2023-07-09T00:31:40;98425.31;;;19.92;61.98
79198;BME280;68628;48.714;9.472;2023-07-09T00:34:08;98434.13;;;19.92;61.81
79198;BME280;68628;48.714;9.472;2023-07-09T00:36:39;98435.66;;;19.88;62.29
79198;BME280;68628;48.714;9.472;2023-07-09T00:39:18;98435.22;;;19.91;62.17
79198;BME280;68628;48.714;9.472;2023-07-09T00:41:46;98440.72;;;19.78;62.91
79198;BME280;68628;48.714;9.472;2023-07-09T00:52:02;98433.50;;;19.67;63.35
79198;BME280;68628;48.714;9.472;2023-07-09T00:54:44;98439.31;;;19.63;63.41
79198;BME280;68628;48.714;9.472;2023-07-09T00:57:19;98440.56;;;19.61;63.40
79198;BME280;68628;48.714;9.472;2023-07-09T00:59:55;98438.94;;;19.60;63.51
79198;BME280;68628;48.714;9.472;2023-07-09T01:02:25;98439.69;;;19.48;64.05
79198;BME280;68628;48.714;9.472;2023-07-09T01:04:56;98438.81;;;19.55;63.79
79198;BME280;68628;48.714;9.472;2023-07-09T01:07:27;98440.25;;;19.39;64.43
79198;BME280;68628;48.714;9.472;2023-07-09T01:09:54;98444.56;;;19.40;64.40
79198;BME280;68628;48.714;9.472;2023-07-09T01:12:21;98450.44;;;19.30;64.91
79198;BME280;68628;48.714;9.472;2023-07-09T01:14:56;98445.22;;;19.35;64.62
79198;BME280;68628;48.714;9.472;2023-07-09T01:17:26;98445.31;;;19.28;64.95
79198;BME280;68628;48.714;9.472;2023-07-09T01:19:54;98442.50;;;19.23;65.05
79198;BME280;68628;48.714;9.472;2023-07-09T01:22:23;98447.66;;;19.06;65.51
79198;BME280;68628;48.714;9.472;2023-07-09T01:25:04;98445.66;;;19.02;65.93
79198;BME280;68628;48.714;9.472;2023-07-09T01:27:38;98454.72;;;19.01;66.11
79198;BME280;68628;48.714;9.472;2023-07-09T01:30:30;98455.47;;;19.08;65.60
79198;BME280;68628;48.714;9.472;2023-07-09T01:33:01;98461.09;;;19.00;66.04
79198;BME280;68628;48.714;9.472;2023-07-09T01:35:30;98459.25;;;19.00;65.90
79198;BME280;68628;48.714;9.472;2023-07-09T01:37:58;98456.19;;;18.96;65.75
79198;BME280;68628;48.714;9.472;2023-07-09T01:40:26;98452.16;;;18.87;66.41
79198;BME280;68628;48.714;9.472;2023-07-09T01:42:54;98453.38;;;18.91;66.25
79198;BME280;68628;48.714;9.472;2023-07-09T01:45:21;98456.47;;;18.88;66.42
79198;BME280;68628;48.714;9.472;2023-07-09T01:47:47;98446.84;;;18.87;66.45
79198;BME280;68628;48.714;9.472;2023-07-09T01:50:13;98450.94;;;18.90;66.55
79198;BME280;68628;48.714;9.472;2023-07-09T01:52:43;98445.66;;;18.83;66.62
79198;BME280;68628;48.714;9.472;2023-07-09T01:55:13;98431.53;;;18.76;66.80
79198;BME280;68628;48.714;9.472;2023-07-09T01:57:43;98445.88;;;18.81;66.48
79198;BME280;68628;48.714;9.472;2023-07-09T02:00:14;98448.53;;;18.81;66.61
79198;BME280;68628;48.714;9.472;2023-07-09T02:02:50;98445.72;;;18.76;66.70
79198;BME280;68628;48.714;9.472;2023-07-09T02:05:19;98459.50;;;18.73;67.09
79198;BME280;68628;48.714;9.472;2023-07-09T02:07:57;98459.00;;;18.64;67.17
79198;BME280;68628;48.714;9.472;2023-07-09T02:10:26;98462.84;;;18.69;66.92
79198;BME280;68628;48.714;9.472;2023-07-09T02:12:57;98449.72;;;18.67;66.79
79198;BME280;68628;48.714;9.472;2023-07-09T02:15:25;98451.28;;;18.56;67.44
79198;BME280;68628;48.714;9.472;2023-07-09T02:17:58;98454.81;;;18.50;67.71
79198;BME280;68628;48.714;9.472;2023-07-09T02:20:48;98456.69;;;18.50;67.82
79198;BME280;68628;48.714;9.472;2023-07-09T02:23:37;98462.16;;;18.55;67.45
79198;BME280;68628;48.714;9.472;2023-07-09T02:26:09;98457.03;;;18.53;67.50
79198;BME280;68628;48.714;9.472;2023-07-09T02:28:40;98460.16;;;18.50;67.57
79198;BME280;68628;48.714;9.472;2023-07-09T02:31:09;98460.81;;;18.45;67.72
79198;BME280;68628;48.714;9.472;2023-07-09T02:33:45;98467.19;;;18.44;67.71
79198;BME280;68628;48.714;9.472;2023-07-09T02:36:30;98458.00;;;18.40;67.83
79198;BME280;68628;48.714;9.472;2023-07-09T02:39:23;98469.53;;;18.34;68.03
79198;BME280;68628;48.714;9.472;2023-07-09T02:42:04;98472.28;;;18.27;68.29
79198;BME280;68628;48.714;9.472;2023-07-09T02:44:53;98473.31;;;18.26;68.35
79198;BME280;68628;48.714;9.472;2023-07-09T02:47:21;98474.78;;;18.22;68.46
79198;BME280;68628;48.714;9.472;2023-07-09T02:49:47;98475.28;;;18.12;68.88
79198;BME280;68628;48.714;9.472;2023-07-09T02:52:16;98466.84;;;18.15;68.53
79198;BME280;68628;48.714;9.472;2023-07-09T02:54:57;98464.63;;;18.12;68.91
79198;BME280;68628;48.714;9.472;2023-07-09T02:57:31;98477.84;;;18.01;68.92
79198;BME280;68628;48.714;9.472;2023-07-09T02:59:59;98479.66;;;18.00;69.31
79198;BME280;68628;48.714;9.472;2023-07-09T03:02:25;98481.75;;;17.98;69.15
79198;BME280;68628;48.714;9.472;2023-07-09T03:04:54;98484.63;;;17.90;69.59
79198;BME280;68628;48.714;9.472;2023-07-09T03:07:22;98485.72;;;17.82;70.02
79198;BME280;68628;48.714;9.472;2023-07-09T03:09:52;98481.59;;;17.86;69.70
79198;BME280;68628;48.714;9.472;2023-07-09T03:12:18;98491.06;;;17.82;69.82
79198;BME280;68628;48.714;9.472;2023-07-09T03:14:48;98487.59;;;17.75;70.15
79198;BME280;68628;48.714;9.472;2023-07-09T03:17:17;98479.66;;;17.68;70.20
79198;BME280;68628;48.714;9.472;2023-07-09T03:19:43;98491.16;;;17.62;70.58
79198;BME280;68628;48.714;9.472;2023-07-09T03:22:09;98483.38;;;17.60;70.86
79198;BME280;68628;48.714;9.472;2023-07-09T03:24:37;98489.72;;;17.59;70.74
79198;BME280;68628;48.714;9.472;2023-07-09T03:27:04;98486.47;;;17.57;70.95
79198;BME280;68628;48.714;9.472;2023-07-09T03:29:30;98494.91;;;17.47;71.21
79198;BME280;68628;48.714;9.472;2023-07-09T03:31:56;98482.84;;;17.45;70.90
79198;BME280;68628;48.714;9.472;2023-07-09T03:34:22;98497.56;;;17.47;71.09
79198;BME280;68628;48.714;9.472;2023-07-09T03:36:48;98494.31;;;17.45;71.32
79198;BME280;68628;48.714;9.472;2023-07-09T03:39:14;98494.28;;;17.52;70.95
79198;BME280;68628;48.714;9.472;2023-07-09T03:41:40;98496.94;;;17.52;71.20
79198;BME280;68628;48.714;9.472;2023-07-09T03:44:11;98502.91;;;17.47;71.26
79198;BME280;68628;48.714;9.472;2023-07-09T03:46:40;98499.44;;;17.47;71.08
79198;BME280;68628;48.714;9.472;2023-07-09T03:49:06;98506.59;;;17.53;71.04
79198;BME280;68628;48.714;9.472;2023-07-09T03:51:34;98507.19;;;17.55;70.87
79198;BME280;68628;48.714;9.472;2023-07-09T03:54:00;98502.88;;;17.54;71.06
79198;BME280;68628;48.714;9.472;2023-07-09T03:56:29;98497.53;;;17.61;70.55
79198;BME280;68628;48.714;9.472;2023-07-09T03:58:55;98505.13;;;17.57;70.99
79198;BME280;68628;48.714;9.472;2023-07-09T04:01:21;98496.13;;;17.58;71.06
79198;BME280;68628;48.714;9.472;2023-07-09T04:03:47;98499.97;;;17.62;70.68
79198;BME280;68628;48.714;9.472;2023-07-09T04:06:15;98505.72;;;17.59;70.56
79198;BME280;68628;48.714;9.472;2023-07-09T04:08:41;98499.97;;;17.62;70.62
79198;BME280;68628;48.714;9.472;2023-07-09T04:11:10;98508.16;;;17.68;70.63
79198;BME280;68628;48.714;9.472;2023-07-09T04:13:36;98502.38;;;17.71;70.47
79198;BME280;68628;48.714;9.472;2023-07-09T04:16:05;98499.09;;;17.69;70.64
79198;BME280;68628;48.714;9.472;2023-07-09T04:18:33;98509.94;;;17.74;70.50
79198;BME280;68628;48.714;9.472;2023-07-09T04:21:01;98515.03;;;17.82;70.37
79198;BME280;68628;48.714;9.472;2023-07-09T04:23:27;98514.66;;;17.78;70.34
79198;BME280;68628;48.714;9.472;2023-07-09T04:26:00;98512.97;;;17.84;70.13
79198;BME280;68628;48.714;9.472;2023-07-09T04:28:32;98509.66;;;17.89;69.95
79198;BME280;68628;48.714;9.472;2023-07-09T04:30:58;98507.59;;;17.91;70.06
79198;BME280;68628;48.714;9.472;2023-07-09T04:33:25;98504.91;;;17.91;70.03
79198;BME280;68628;48.714;9.472;2023-07-09T04:35:51;98512.50;;;18.01;69.83
79198;BME280;68628;48.714;9.472;2023-07-09T04:38:17;98518.00;;;17.99;69.75
79198;BME280;68628;48.714;9.472;2023-07-09T04:40:48;98516.00;;;17.94;69.97
79198;BME280;68628;48.714;9.472;2023-07-09T04:43:14;98522.06;;;18.08;70.03
79198;BME280;68628;48.714;9.472;2023-07-09T04:45:40;98516.88;;;18.13;69.83
79198;BME280;68628;48.714;9.472;2023-07-09T04:48:07;98523.38;;;18.24;69.72
79198;BME280;68628;48.714;9.472;2023-07-09T04:50:33;98526.19;;;18.29;69.35
79198;BME280;68628;48.714;9.472;2023-07-09T04:53:02;98521.28;;;18.01;70.49
79198;BME280;68628;48.714;9.472;2023-07-09T04:55:27;98522.13;;;18.27;69.51
79198;BME280;68628;48.714;9.472;2023-07-09T04:57:53;98519.22;;;18.35;69.24
79198;BME280;68628;48.714;9.472;2023-07-09T05:00:19;98517.06;;;18.44;69.37
79198;BME280;68628;48.714;9.472;2023-07-09T05:02:45;98524.03;;;18.45;69.14
79198;BME280;68628;48.714;9.472;2023-07-09T05:05:11;98521.91;;;18.54;68.95
79198;BME280;68628;48.714;9.472;2023-07-09T05:07:38;98516.53;;;18.79;67.19
79198;BME280;68628;48.714;9.472;2023-07-09T05:10:06;98524.56;;;18.79;68.26
79198;BME280;68628;48.714;9.472;2023-07-09T05:12:35;98525.97;;;18.81;68.70
79198;BME280;68628;48.714;9.472;2023-07-09T05:15:09;98526.72;;;18.89;68.26
79198;BME280;68628;48.714;9.472;2023-07-09T05:17:38;98525.19;;;19.00;67.77
79198;BME280;68628;48.714;9.472;2023-07-09T05:20:09;98524.00;;;19.14;67.39
79198;BME280;68628;48.714;9.472;2023-07-09T05:22:35;98523.56;;;19.17;67.44
79198;BME280;68628;48.714;9.472;2023-07-09T05:25:04;98527.84;;;19.18;66.78
79198;BME280;68628;48.714;9.472;2023-07-09T05:27:33;98520.78;;;19.42;66.53
79198;BME280;68628;48.714;9.472;2023-07-09T05:29:59;98522.41;;;19.62;65.73
79198;BME280;68628;48.714;9.472;2023-07-09T05:32:33;98522.63;;;19.91;64.21
79198;BME280;68628;48.714;9.472;2023-07-09T05:35:16;98518.38;;;20.02;63.30
79198;BME280;68628;48.714;9.472;2023-07-09T05:37:56;98521.38;;;20.05;63.70
79198;BME280;68628;48.714;9.472;2023-07-09T05:41:04;98527.00;;;20.27;63.70
79198;BME280;68628;48.714;9.472;2023-07-09T05:43:52;98525.16;;;20.28;63.28
79198;BME280;68628;48.714;9.472;2023-07-09T05:46:27;98526.00;;;20.40;63.67
79198;BME280;68628;48.714;9.472;2023-07-09T05:49:08;98522.25;;;20.65;62.53
79198;BME280;68628;48.714;9.472;2023-07-09T05:51:34;98527.75;;;20.82;61.83
79198;BME280;68628;48.714;9.472;2023-07-09T05:54:06;98530.78;;;20.86;62.28
79198;BME280;68628;48.714;9.472;2023-07-09T05:56:37;98531.34;;;21.11;61.27
79198;BME280;68628;48.714;9.472;2023-07-09T05:59:06;98535.38;;;21.26;60.05
79198;BME280;68628;48.714;9.472;2023-07-09T06:01:41;98535.59;;;21.36;60.00
79198;BME280;68628;48.714;9.472;2023-07-09T06:04:09;98529.28;;;21.54;59.11
79198;BME280;68628;48.714;9.472;2023-07-09T06:06:51;98532.97;;;21.53;59.01
79198;BME280;68628;48.714;9.472;2023-07-09T06:09:17;98538.63;;;21.80;58.79
79198;BME280;68628;48.714;9.472;2023-07-09T06:11:48;98537.09;;;21.85;58.46
79198;BME280;68628;48.714;9.472;2023-07-09T06:14:18;98537.34;;;22.17;57.72
79198;BME280;68628;48.714;9.472;2023-07-09T06:17:01;98540.78;;;22.80;56.17
79198;BME280;68628;48.714;9.472;2023-07-09T06:19:32;98542.38;;;23.38;54.13
79198;BME280;68628;48.714;9.472;2023-07-09T06:22:14;98545.16;;;23.48;53.22
79198;BME280;68628;48.714;9.472;2023-07-09T06:24:50;98534.53;;;24.08;51.42
79198;BME280;68628;48.714;9.472;2023-07-09T06:27:18;98530.09;;;24.24;50.74
79198;BME280;68628;48.714;9.472;2023-07-09T06:29:55;98537.00;;;24.85;49.12
79198;BME280;68628;48.714;9.472;2023-07-09T06:32:21;98533.91;;;25.08;48.91
79198;BME280;68628;48.714;9.472;2023-07-09T06:34:49;98538.19;;;25.78;47.20
79198;BME280;68628;48.714;9.472;2023-07-09T06:37:15;98537.13;;;26.00;46.57
79198;BME280;68628;48.714;9.472;2023-07-09T06:39:46;98535.59;;;26.09;45.99
79198;BME280;68628;48.714;9.472;2023-07-09T06:42:14;98535.56;;;26.45;44.82
79198;BME280;68628;48.714;9.472;2023-07-09T06:44:40;98532.31;;;26.33;45.36
79198;BME280;68628;48.714;9.472;2023-07-09T06:47:06;98538.00;;;26.52;44.86
79198;BME280;68628;48.714;9.472;2023-07-09T06:49:32;98545.28;;;26.56;44.61
79198;BME280;68628;48.714;9.472;2023-07-09T06:51:58;98541.66;;;27.18;43.63
79198;BME280;68628;48.714;9.472;2023-07-09T06:54:27;98537.00;;;27.29;42.91
79198;BME280;68628;48.714;9.472;2023-07-09T06:56:53;98539.84;;;26.92;43.80
79198;BME280;68628;48.714;9.472;2023-07-09T06:59:19;98534.13;;;27.04;43.44
79198;BME280;68628;48.714;9.472;2023-07-09T07:01:50;98532.69;;;27.22;43.90
79198;BME280;68628;48.714;9.472;2023-07-09T07:04:22;98535.03;;;28.00;41.19
79198;BME280;68628;48.714;9.472;2023-07-09T07:07:06;98533.91;;;26.80;43.95
79198;BME280;68628;48.714;9.472;2023-07-09T07:09:41;98537.97;;;26.77;43.96
79198;BME280;68628;48.714;9.472;2023-07-09T07:12:13;98539.78;;;27.08;44.04
79198;BME280;68628;48.714;9.472;2023-07-09T07:14:52;98534.78;;;27.46;42.43
79198;BME280;68628;48.714;9.472;2023-07-09T07:17:22;98531.81;;;27.42;42.71
79198;BME280;68628;48.714;9.472;2023-07-09T07:19:49;98534.78;;;27.96;41.64
79198;BME280;68628;48.714;9.472;2023-07-09T07:22:23;98526.50;;;28.51;40.73
79198;BME280;68628;48.714;9.472;2023-07-09T07:24:52;98535.63;;;28.61;40.84
79198;BME280;68628;48.714;9.472;2023-07-09T07:27:18;98533.19;;;29.13;39.37
79198;BME280;68628;48.714;9.472;2023-07-09T07:29:43;98530.38;;;30.04;37.74
79198;BME280;68628;48.714;9.472;2023-07-09T07:32:10;98533.91;;;30.71;36.01
79198;BME280;68628;48.714;9.472;2023-07-09T07:34:36;98526.84;;;30.04;37.08
79198;BME280;68628;48.714;9.472;2023-07-09T07:37:05;98521.47;;;30.18;36.53
79198;BME280;68628;48.714;9.472;2023-07-09T07:39:31;98523.53;;;30.73;35.65
79198;BME280;68628;48.714;9.472;2023-07-09T07:41:56;98519.25;;;32.23;32.42
79198;BME280;68628;48.714;9.472;2023-07-09T07:44:26;98514.63;;;31.65;34.18
79198;BME280;68628;48.714;9.472;2023-07-09T07:46:57;98516.50;;;31.78;34.43
79198;BME280;68628;48.714;9.472;2023-07-09T07:49:22;98512.78;;;32.42;32.95
79198;BME280;68628;48.714;9.472;2023-07-09T07:51:48;98507.22;;;33.28;31.40
79198;BME280;68628;48.714;9.472;2023-07-09T07:54:16;98508.03;;;32.79;32.19
79198;BME280;68628;48.714;9.472;2023-07-09T07:56:51;98505.81;;;34.09;29.65
79198;BME280;68628;48.714;9.472;2023-07-09T07:59:17;98511.53;;;30.74;34.65
79198;BME280;68628;48.714;9.472;2023-07-09T08:01:46;98510.97;;;31.05;34.54
79198;BME280;68628;48.714;9.472;2023-07-09T08:04:11;98505.00;;;30.89;34.30
79198;BME280;68628;48.714;9.472;2023-07-09T08:06:37;98504.72;;;31.04;34.47
79198;BME280;68628;48.714;9.472;2023-07-09T08:09:03;98505.16;;;31.48;34.40
79198;BME280;68628;48.714;9.472;2023-07-09T08:11:28;98500.91;;;32.15;32.65
79198;BME280;68628;48.714;9.472;2023-07-09T08:13:56;98503.16;;;31.40;33.98
79198;BME280;68628;48.714;9.472;2023-07-09T08:16:22;98497.47;;;32.64;32.76
79198;BME280;68628;48.714;9.472;2023-07-09T08:18:47;98491.00;;;33.31;30.56
79198;BME280;68628;48.714;9.472;2023-07-09T08:21:13;98494.69;;;32.46;31.90
79198;BME280;68628;48.714;9.472;2023-07-09T08:23:39;98502.00;;;32.14;32.59
79198;BME280;68628;48.714;9.472;2023-07-09T08:26:05;98496.13;;;31.76;32.94
79198;BME280;68628;48.714;9.472;2023-07-09T08:28:31;98489.59;;;32.22;32.76
79198;BME280;68628;48.714;9.472;2023-07-09T08:30:57;98492.63;;;32.83;30.94
79198;BME280;68628;48.714;9.472;2023-07-09T08:33:24;98485.19;;;32.44;31.80
79198;BME280;68628;48.714;9.472;2023-07-09T08:35:51;98494.16;;;32.35;31.67
79198;BME280;68628;48.714;9.472;2023-07-09T08:38:19;98492.47;;;32.48;31.13
79198;BME280;68628;48.714;9.472;2023-07-09T08:40:58;98496.38;;;32.11;31.33
79198;BME280;68628;48.714;9.472;2023-07-09T08:43:33;98493.44;;;33.50;29.72
79198;BME280;68628;48.714;9.472;2023-07-09T08:46:11;98491.59;;;33.19;29.98
79198;BME280;68628;48.714;9.472;2023-07-09T08:48:48;98489.84;;;34.37;27.79
79198;BME280;68628;48.714;9.472;2023-07-09T08:51:38;98488.97;;;32.88;27.99
79198;BME280;68628;48.714;9.472;2023-07-09T08:54:24;98487.81;;;32.80;28.67
79198;BME280;68628;48.714;9.472;2023-07-09T08:56:54;98494.03;;;34.26;26.70
79198;BME280;68628;48.714;9.472;2023-07-09T08:59:28;98490.13;;;34.92;25.99
79198;BME280;68628;48.714;9.472;2023-07-09T09:01:58;98487.50;;;36.10;25.30
79198;BME280;68628;48.714;9.472;2023-07-09T09:04:29;98491.22;;;35.93;25.20
79198;BME280;68628;48.714;9.472;2023-07-09T09:07:31;98488.91;;;36.29;25.39
79198;BME280;68628;48.714;9.472;2023-07-09T09:10:12;98487.16;;;36.45;24.94
79198;BME280;68628;48.714;9.472;2023-07-09T09:15:31;98480.59;;;37.49;23.59
79198;BME280;68628;48.714;9.472;2023-07-09T09:18:09;98491.53;;;37.61;22.99
79198;BME280;68628;48.714;9.472;2023-07-09T09:20:44;98489.47;;;38.27;22.30
79198;BME280;68628;48.714;9.472;2023-07-09T09:23:14;98491.03;;;39.08;21.76
79198;BME280;68628;48.714;9.472;2023-07-09T09:25:47;98482.19;;;39.35;22.01
79198;BME280;68628;48.714;9.472;2023-07-09T09:28:19;98480.53;;;38.02;22.27
79198;BME280;68628;48.714;9.472;2023-07-09T09:30:44;98480.94;;;38.48;21.45
79198;BME280;68628;48.714;9.472;2023-07-09T09:33:11;98482.53;;;38.65;21.55
79198;BME280;68628;48.714;9.472;2023-07-09T09:35:40;98476.69;;;37.91;20.61
79198;BME280;68628;48.714;9.472;2023-07-09T09:38:16;98472.06;;;36.06;22.99
79198;BME280;68628;48.714;9.472;2023-07-09T09:40:44;98469.00;;;36.19;23.26
79198;BME280;68628;48.714;9.472;2023-07-09T09:43:16;98466.72;;;37.05;22.28
79198;BME280;68628;48.714;9.472;2023-07-09T09:45:47;98469.53;;;38.18;21.04
79198;BME280;68628;48.714;9.472;2023-07-09T09:48:36;98470.59;;;36.91;21.75
79198;BME280;68628;48.714;9.472;2023-07-09T09:51:05;98475.72;;;36.80;20.62
79198;BME280;68628;48.714;9.472;2023-07-09T09:53:38;98475.63;;;36.64;20.82
79198;BME280;68628;48.714;9.472;2023-07-09T09:56:14;98477.41;;;37.75;20.34
79198;BME280;68628;48.714;9.472;2023-07-09T09:58:43;98473.22;;;37.12;21.09
79198;BME280;68628;48.714;9.472;2023-07-09T10:01:17;98476.84;;;37.41;20.39
79198;BME280;68628;48.714;9.472;2023-07-09T10:03:47;98475.53;;;38.52;20.34
79198;BME280;68628;48.714;9.472;2023-07-09T10:06:17;98464.28;;;39.09;19.93
79198;BME280;68628;48.714;9.472;2023-07-09T10:09:13;98469.34;;;40.01;18.40
79198;BME280;68628;48.714;9.472;2023-07-09T10:12:04;98460.38;;;39.10;18.83
79198;BME280;68628;48.714;9.472;2023-07-09T10:23:29;98447.97;;;36.94;21.50
79198;BME280;68628;48.714;9.472;2023-07-09T10:26:15;98440.72;;;37.14;21.70
79198;BME280;68628;48.714;9.472;2023-07-09T10:40:31;98429.75;;;36.40;23.22
79198;BME280;68628;48.714;9.472;2023-07-09T10:43:04;98431.06;;;38.34;21.29
79198;BME280;68628;48.714;9.472;2023-07-09T10:45:44;98432.25;;;38.69;21.45
79198;BME280;68628;48.714;9.472;2023-07-09T10:48:33;98424.44;;;38.87;20.92
79198;BME280;68628;48.714;9.472;2023-07-09T10:57:10;98418.34;;;38.13;21.09
79198;BME280;68628;48.714;9.472;2023-07-09T10:59:49;98404.88;;;38.40;20.81
79198;BME280;68628;48.714;9.472;2023-07-09T11:02:35;98399.84;;;37.82;21.49
79198;BME280;68628;48.714;9.472;2023-07-09T11:05:05;98400.03;;;36.92;22.27
79198;BME280;68628;48.714;9.472;2023-07-09T11:07:49;98401.50;;;37.42;21.18
79198;BME280;68628;48.714;9.472;2023-07-09T11:10:37;98401.53;;;37.58;22.49
79198;BME280;68628;48.714;9.472;2023-07-09T11:13:38;98393.69;;;36.17;23.29
79198;BME280;68628;48.714;9.472;2023-07-09T11:16:16;98397.69;;;36.19;22.84
79198;BME280;68628;48.714;9.472;2023-07-09T11:19:14;98398.22;;;35.88;23.34
79198;BME280;68628;48.714;9.472;2023-07-09T11:22:13;98395.63;;;35.70;22.59
79198;BME280;68628;48.714;9.472;2023-07-09T11:24:53;98382.31;;;35.48;23.10
79198;BME280;68628;48.714;9.472;2023-07-09T11:27:32;98388.28;;;35.96;22.82
79198;BME280;68628;48.714;9.472;2023-07-09T11:30:01;98386.41;;;35.75;23.25
79198;BME280;68628;48.714;9.472;2023-07-09T11:32:46;98383.59;;;35.84;22.14
79198;BME280;68628;48.714;9.472;2023-07-09T11:35:24;98374.63;;;35.20;22.25
79198;BME280;68628;48.714;9.472;2023-07-09T11:37:55;98374.84;;;35.36;22.62
79198;BME280;68628;48.714;9.472;2023-07-09T11:40:22;98371.94;;;35.53;23.25
79198;BME280;68628;48.714;9.472;2023-07-09T11:45:41;98367.13;;;35.50;23.18
79198;BME280;68628;48.714;9.472;2023-07-09T11:48:25;98364.47;;;35.42;22.81
79198;BME280;68628;48.714;9.472;2023-07-09T11:50:57;98367.81;;;35.47;22.51
79198;BME280;68628;48.714;9.472;2023-07-09T11:53:31;98365.78;;;35.57;22.10
79198;BME280;68628;48.714;9.472;2023-07-09T11:56:02;98367.53;;;35.40;22.80
79198;BME280;68628;48.714;9.472;2023-07-09T11:58:28;98358.00;;;35.46;21.46
79198;BME280;68628;48.714;9.472;2023-07-09T12:00:57;98351.28;;;35.90;21.76
79198;BME280;68628;48.714;9.472;2023-07-09T12:03:34;98360.47;;;35.73;20.52
79198;BME280;68628;48.714;9.472;2023-07-09T12:06:28;98357.13;;;36.00;20.53
79198;BME280;68628;48.714;9.472;2023-07-09T12:08:57;98346.50;;;35.99;19.61
79198;BME280;68628;48.714;9.472;2023-07-09T12:11:26;98344.00;;;36.56;20.36
79198;BME280;68628;48.714;9.472;2023-07-09T12:14:01;98354.16;;;36.30;20.49
79198;BME280;68628;48.714;9.472;2023-07-09T12:16:35;98354.28;;;36.59;21.29
79198;BME280;68628;48.714;9.472;2023-07-09T12:19:03;98346.75;;;36.43;21.73
79198;BME280;68628;48.714;9.472;2023-07-09T12:21:37;98344.78;;;36.07;21.89
79198;BME280;68628;48.714;9.472;2023-07-09T12:24:18;98345.94;;;35.72;22.17
79198;BME280;68628;48.714;9.472;2023-07-09T12:26:58;98352.31;;;35.64;22.02
79198;BME280;68628;48.714;9.472;2023-07-09T12:29:34;98346.06;;;35.63;21.96
79198;BME280;68628;48.714;9.472;2023-07-09T12:32:11;98342.72;;;36.16;21.88
79198;BME280;68628;48.714;9.472;2023-07-09T12:34:39;98347.94;;;35.84;21.87
79198;BME280;68628;48.714;9.472;2023-07-09T12:37:05;98335.19;;;36.50;21.72
79198;BME280;68628;48.714;9.472;2023-07-09T12:39:38;98323.84;;;36.76;20.68
79198;BME280;68628;48.714;9.472;2023-07-09T12:42:04;98329.31;;;36.89;20.66
79198;BME280;68628;48.714;9.472;2023-07-09T12:44:35;98329.94;;;36.32;20.81
79198;BME280;68628;48.714;9.472;2023-07-09T12:47:02;98321.38;;;36.34;21.25
79198;BME280;68628;48.714;9.472;2023-07-09T12:49:30;98328.03;;;35.75;21.20
79198;BME280;68628;48.714;9.472;2023-07-09T12:52:12;98319.09;;;35.53;22.11
79198;BME280;68628;48.714;9.472;2023-07-09T12:54:52;98306.84;;;36.09;21.60
79198;BME280;68628;48.714;9.472;2023-07-09T12:57:26;98308.34;;;35.94;22.50
79198;BME280;68628;48.714;9.472;2023-07-09T12:59:54;98313.03;;;35.60;21.92
79198;BME280;68628;48.714;9.472;2023-07-09T13:02:27;98320.78;;;36.16;22.20
79198;BME280;68628;48.714;9.472;2023-07-09T13:05:04;98315.53;;;36.11;22.19
79198;BME280;68628;48.714;9.472;2023-07-09T13:07:34;98311.19;;;35.85;21.69
79198;BME280;68628;48.714;9.472;2023-07-09T13:10:15;98303.84;;;35.77;21.90
79198;BME280;68628;48.714;9.472;2023-07-09T13:12:48;98294.13;;;35.79;21.76
79198;BME280;68628;48.714;9.472;2023-07-09T13:15:42;98291.66;;;36.36;21.54
79198;BME280;68628;48.714;9.472;2023-07-09T13:18:12;98295.97;;;35.75;21.76
79198;BME280;68628;48.714;9.472;2023-07-09T13:20:45;98290.00;;;35.61;21.63
79198;BME280;68628;48.714;9.472;2023-07-09T13:23:25;98294.63;;;35.48;22.12
79198;BME280;68628;48.714;9.472;2023-07-09T13:25:53;98291.69;;;35.65;22.15
79198;BME280;68628;48.714;9.472;2023-07-09T13:28:27;98280.00;;;35.90;21.93
79198;BME280;68628;48.714;9.472;2023-07-09T13:31:04;98280.78;;;36.27;21.30
79198;BME280;68628;48.714;9.472;2023-07-09T13:33:44;98278.50;;;36.95;21.10
79198;BME280;68628;48.714;9.472;2023-07-09T13:36:15;98273.16;;;37.59;20.92
79198;BME280;68628;48.714;9.472;2023-07-09T13:38:41;98262.81;;;38.00;20.43
79198;BME280;68628;48.714;9.472;2023-07-09T13:41:14;98262.34;;;37.22;20.42
79198;BME280;68628;48.714;9.472;2023-07-09T13:43:46;98266.25;;;37.49;20.60
79198;BME280;68628;48.714;9.472;2023-07-09T13:46:13;98263.69;;;36.71;20.70
79198;BME280;68628;48.714;9.472;2023-07-09T13:48:42;98263.88;;;36.25;21.03
79198;BME280;68628;48.714;9.472;2023-07-09T13:51:15;98263.38;;;36.60;21.26
79198;BME280;68628;48.714;9.472;2023-07-09T13:53:45;98265.63;;;37.11;21.15
79198;BME280;68628;48.714;9.472;2023-07-09T13:56:11;98258.53;;;37.10;20.53
79198;BME280;68628;48.714;9.472;2023-07-09T13:58:37;98264.41;;;36.96;20.59
79198;BME280;68628;48.714;9.472;2023-07-09T14:01:20;98267.19;;;36.31;20.60
79198;BME280;68628;48.714;9.472;2023-07-09T14:03:48;98267.75;;;36.12;21.14
79198;BME280;68628;48.714;9.472;2023-07-09T14:06:16;98265.91;;;35.66;21.33